Braintree Highlands, Massachusetts
Current Conditions -  °F | °C
As of 11:53 PM on Thursday 27 Nov 2014 (Local Time) from KOWD Reporting Station
Light Snow Light Snow  
Wind Chill: 25°   Ceiling: 3600
Heat Index: 30°   Visibility: 9mi
Dew Point: 26°   Wind: 5mph
Humidity: 85%   Direction: 330°NNW
Pressure: 30"   Gusts: NA
Location:  42.2036°N, 71.0017°W
Report Text: KOWD 280453Z 33004KT 9SM -SN OVC036 M01/M03 A3000 RMK AO2 SLP159 P0000 T10111033 400501011
Loading
Personal Weather Stations






























Interactive Weather Map New forecast layout! Learn more

10-Day Weather Forecast

Advertisements
Track Severe Weather on mobile